Time;durP1;ratioP1;P1;durP2;ratioP2;P2;SDS_P1;SDS_P2;PMS_P1;PMS_P2;Temp;Humidity;BMP_temperature;BMP_pressure;BME280_temperature;BME280_humidity;BME280_pressure;Samples;Min_cycle;Max_cycle;Signal;HPM_P1;HPM_P2
2023/05/09 00:02:10;;;;;;;5.57;2.97;;;;;;;;;;10174366;28;20132;-84
2023/05/09 00:07:15;;;;;;;4.20;3.47;;;;;;;;;;10178095;28;20051;-86
2023/05/09 00:12:20;;;;;;;3.03;2.73;;;;;;;;;;10255090;28;20131;-84
2023/05/09 00:17:24;;;;;;;3.17;2.78;;;;;;;;;;10246362;28;20055;-84
2023/05/09 00:22:29;;;;;;;3.95;2.80;;;;;;;;;;10182705;28;20040;-84
2023/05/09 00:27:33;;;;;;;3.63;2.88;;;;;;;;;;10254805;28;20054;-84
2023/05/09 00:32:39;;;;;;;5.70;2.75;;;;;;;;;;10249697;28;20083;-87
2023/05/09 00:37:44;;;;;;;3.40;2.57;;;;;;;;;;10244962;28;20412;-84
2023/05/09 00:42:47;;;;;;;3.97;3.00;;;;;;;;;;10243702;28;20413;-85
2023/05/09 00:47:50;;;;;;;3.15;2.55;;;;;;;;;;10262744;28;20064;-85
2023/05/09 00:52:55;;;;;;;2.53;2.22;;;;;;;;;;10244329;28;20093;-86
2023/05/09 00:57:59;;;;;;;3.20;2.40;;;;;;;;;;10241037;28;20142;-83
2023/05/09 01:03:03;;;;;;;3.10;2.65;;;;;;;;;;10240016;28;20491;-84
2023/05/09 01:08:15;;;;;;;4.15;3.08;;;;;;;;;;10254184;28;20052;-84
2023/05/09 01:13:24;;;;;;;4.47;2.83;;;;;;;;;;10255893;28;20501;-84
2023/05/09 01:18:33;;;;;;;4.05;3.22;;;;;;;;;;10239538;28;20525;-86
2023/05/09 01:24:13;;;;;;;4.93;2.80;;;;;;;;;;10249560;28;20054;-85
2023/05/09 01:29:36;;;;;;;3.30;2.20;;;;;;;;;;10250127;28;20060;-84
2023/05/09 01:34:43;;;;;;;2.83;2.53;;;;;;;;;;10239024;28;20543;-85
2023/05/09 01:39:50;;;;;;;3.40;2.85;;;;;;;;;;10249656;28;20090;-83
2023/05/09 01:44:56;;;;;;;3.28;2.83;;;;;;;;;;10167460;28;20071;-85
2023/05/09 01:50:04;;;;;;;3.30;2.88;;;;;;;;;;10244721;28;20131;-84
2023/05/09 01:55:08;;;;;;;4.30;3.40;;;;;;;;;;10247441;28;20135;-85
2023/05/09 02:00:18;;;;;;;3.88;2.95;;;;;;;;;;10270393;28;20596;-83
2023/05/09 02:05:23;;;;;;;2.95;2.55;;;;;;;;;;10245256;28;20664;-84
2023/05/09 02:10:28;;;;;;;3.15;2.80;;;;;;;;;;10251190;28;20048;-86
2023/05/09 02:15:36;;;;;;;2.42;2.20;;;;;;;;;;10257900;28;20106;-84
2023/05/09 02:20:41;;;;;;;3.47;3.10;;;;;;;;;;10251063;28;20533;-85
2023/05/09 02:25:46;;;;;;;5.07;2.60;;;;;;;;;;10265091;28;20060;-87
2023/05/09 02:30:53;;;;;;;3.70;2.65;;;;;;;;;;10188911;28;20046;-84
2023/05/09 02:35:57;;;;;;;2.45;2.25;;;;;;;;;;10250140;28;20198;-83
2023/05/09 02:41:01;;;;;;;3.75;3.13;;;;;;;;;;10234769;28;20465;-83
2023/05/09 02:46:06;;;;;;;3.40;3.10;;;;;;;;;;10177545;28;20123;-83
2023/05/09 02:51:09;;;;;;;2.60;2.28;;;;;;;;;;10241025;28;20766;-84
2023/05/09 02:56:12;;;;;;;2.78;2.58;;;;;;;;;;10190511;28;20131;-86
2023/05/09 03:01:17;;;;;;;2.53;2.33;;;;;;;;;;10248337;28;20348;-85
2023/05/09 03:06:21;;;;;;;2.65;2.45;;;;;;;;;;10255997;28;20134;-82
2023/05/09 03:11:24;;;;;;;2.40;2.20;;;;;;;;;;10238908;28;20398;-82
2023/05/09 03:16:29;;;;;;;2.45;2.05;;;;;;;;;;10242284;28;20047;-81
2023/05/09 03:21:35;;;;;;;2.40;2.20;;;;;;;;;;10250650;28;20142;-82
2023/05/09 03:26:39;;;;;;;2.28;2.08;;;;;;;;;;10246592;28;20539;-82
2023/05/09 03:31:45;;;;;;;2.47;2.28;;;;;;;;;;10243296;28;20056;-82
2023/05/09 03:36:48;;;;;;;3.03;2.72;;;;;;;;;;10243846;28;20052;-82
2023/05/09 03:41:52;;;;;;;2.97;2.53;;;;;;;;;;10244927;28;20087;-82
2023/05/09 03:46:57;;;;;;;2.47;2.22;;;;;;;;;;10158812;28;20270;-83
2023/05/09 03:52:01;;;;;;;2.40;2.20;;;;;;;;;;10227765;28;20091;-82
2023/05/09 03:57:05;;;;;;;3.40;3.08;;;;;;;;;;10253862;28;20057;-81
2023/05/09 04:02:11;;;;;;;3.30;2.35;;;;;;;;;;10247547;28;20233;-82
2023/05/09 04:07:15;;;;;;;3.05;2.47;;;;;;;;;;10257966;28;20058;-81
2023/05/09 04:12:20;;;;;;;3.53;2.70;;;;;;;;;;10239909;28;20052;-82
2023/05/09 04:17:27;;;;;;;3.33;2.90;;;;;;;;;;10237569;28;20052;-84
2023/05/09 04:22:32;;;;;;;2.92;2.60;;;;;;;;;;10241041;28;20051;-84
2023/05/09 04:27:36;;;;;;;2.83;2.03;;;;;;;;;;10226259;28;20064;-84
2023/05/09 04:32:44;;;;;;;2.72;2.08;;;;;;;;;;10226414;28;20044;-82
2023/05/09 04:37:48;;;;;;;2.83;2.53;;;;;;;;;;10240913;28;20127;-83
2023/05/09 04:42:52;;;;;;;2.30;2.10;;;;;;;;;;10248037;28;20142;-83
2023/05/09 04:48:01;;;;;;;2.42;2.22;;;;;;;;;;10268865;28;20102;-83
2023/05/09 04:53:04;;;;;;;2.53;2.33;;;;;;;;;;10238124;28;20051;-83
2023/05/09 04:58:09;;;;;;;2.92;2.45;;;;;;;;;;10259828;28;20053;-83
2023/05/09 05:03:16;;;;;;;2.65;2.45;;;;;;;;;;10233912;23;20057;-83
2023/05/09 05:08:20;;;;;;;2.45;2.00;;;;;;;;;;10209287;28;20791;-83
2023/05/09 05:13:24;;;;;;;2.05;1.85;;;;;;;;;;10175369;28;20083;-83
2023/05/09 05:18:33;;;;;;;2.40;2.20;;;;;;;;;;10168110;28;20725;-84
2023/05/09 05:23:36;;;;;;;4.82;2.13;;;;;;;;;;10176026;28;20481;-84
2023/05/09 05:28:40;;;;;;;3.97;2.40;;;;;;;;;;10156219;28;20589;-86
2023/05/09 05:33:45;;;;;;;3.00;2.60;;;;;;;;;;10172286;28;20069;-87
2023/05/09 05:38:50;;;;;;;3.20;2.67;;;;;;;;;;10171987;28;20045;-86
2023/05/09 05:43:53;;;;;;;3.58;3.13;;;;;;;;;;10175188;28;20161;-83
2023/05/09 05:48:58;;;;;;;5.00;4.30;;;;;;;;;;10175627;28;20115;-83
2023/05/09 05:54:02;;;;;;;5.78;4.53;;;;;;;;;;10155530;28;20052;-83
2023/05/09 05:59:07;;;;;;;5.65;4.45;;;;;;;;;;10173413;28;20076;-82
2023/05/09 06:04:20;;;;;;;7.78;5.03;;;;;;;;;;10178396;28;20092;-83
2023/05/09 06:09:24;;;;;;;7.07;5.33;;;;;;;;;;10175410;28;20045;-83
2023/05/09 06:14:27;;;;;;;7.35;5.40;;;;;;;;;;10174976;28;20063;-83
2023/05/09 06:19:32;;;;;;;6.68;5.05;;;;;;;;;;10172134;28;20135;-83
2023/05/09 06:24:35;;;;;;;6.50;5.55;;;;;;;;;;10168787;28;20049;-83
2023/05/09 06:29:39;;;;;;;6.13;4.97;;;;;;;;;;10168315;28;20116;-84
2023/05/09 06:34:43;;;;;;;6.13;5.03;;;;;;;;;;10169187;28;20198;-84
2023/05/09 06:39:47;;;;;;;7.65;5.20;;;;;;;;;;10113736;28;20044;-84
2023/05/09 06:44:50;;;;;;;6.68;5.47;;;;;;;;;;10173506;28;20440;-84
2023/05/09 06:49:55;;;;;;;5.43;4.72;;;;;;;;;;10148826;28;20466;-84
2023/05/09 06:54:58;;;;;;;6.97;5.47;;;;;;;;;;10170257;28;20196;-84
2023/05/09 07:00:03;;;;;;;7.72;6.47;;;;;;;;;;10105767;28;20084;-84
2023/05/09 07:05:12;;;;;;;6.30;5.55;;;;;;;;;;10111911;28;20049;-83
2023/05/09 07:10:16;;;;;;;5.38;4.47;;;;;;;;;;10157847;28;20053;-83
2023/05/09 07:15:19;;;;;;;8.65;6.57;;;;;;;;;;10115071;28;20571;-83
2023/05/09 07:20:32;;;;;;;8.27;6.68;;;;;;;;;;10109153;28;20056;-83
2023/05/09 07:25:35;;;;;;;8.93;6.35;;;;;;;;;;10170168;28;20068;-83
2023/05/09 07:30:39;;;;;;;10.07;6.68;;;;;;;;;;10174161;28;20537;-83
2023/05/09 07:35:43;;;;;;;6.55;5.20;;;;;;;;;;10166995;28;20056;-83
2023/05/09 07:40:47;;;;;;;7.50;5.47;;;;;;;;;;10176076;28;20056;-83
2023/05/09 07:45:51;;;;;;;6.97;5.50;;;;;;;;;;10097636;28;20067;-83
2023/05/09 07:50:55;;;;;;;6.15;4.85;;;;;;;;;;10096836;28;20199;-83
2023/05/09 07:55:59;;;;;;;8.15;5.10;;;;;;;;;;10166546;28;20056;-83
2023/05/09 08:01:03;;;;;;;9.80;7.93;;;;;;;;;;10174455;28;20414;-83
2023/05/09 08:06:08;;;;;;;6.40;5.15;;;;;;;;;;10170753;28;20080;-83
2023/05/09 08:11:11;;;;;;;7.57;5.00;;;;;;;;;;10161839;28;20064;-84
2023/05/09 08:16:17;;;;;;;6.47;5.57;;;;;;;;;;10178579;28;20438;-84
2023/05/09 08:21:21;;;;;;;6.45;5.22;;;;;;;;;;10100155;28;20588;-83
2023/05/09 08:26:26;;;;;;;7.85;6.25;;;;;;;;;;10177569;28;20498;-84
2023/05/09 08:31:32;;;;;;;15.07;10.18;;;;;;;;;;10162901;28;20060;-85
2023/05/09 08:36:37;;;;;;;9.73;6.80;;;;;;;;;;10162280;28;20061;-87
2023/05/09 08:41:41;;;;;;;9.98;6.88;;;;;;;;;;10163445;28;20056;-88
2023/05/09 08:46:45;;;;;;;8.50;6.97;;;;;;;;;;10118262;28;20049;-86
2023/05/09 08:51:50;;;;;;;8.25;6.90;;;;;;;;;;10193617;28;20061;-86
2023/05/09 08:56:54;;;;;;;7.60;6.80;;;;;;;;;;10169020;28;20045;-89
2023/05/09 09:01:57;;;;;;;11.13;9.15;;;;;;;;;;10121775;28;20156;-85
2023/05/09 09:07:05;;;;;;;9.05;7.30;;;;;;;;;;10092205;28;20099;-85
2023/05/09 09:12:10;;;;;;;7.00;5.60;;;;;;;;;;10169952;28;20076;-85
2023/05/09 09:17:19;;;;;;;7.10;5.93;;;;;;;;;;10187479;28;20048;-87
2023/05/09 09:22:24;;;;;;;4.90;4.35;;;;;;;;;;10122609;28;20052;-85
2023/05/09 09:27:28;;;;;;;5.18;4.60;;;;;;;;;;10188515;28;20051;-89
2023/05/09 09:32:33;;;;;;;6.95;5.85;;;;;;;;;;10115860;28;20140;-88
2023/05/09 09:37:40;;;;;;;7.03;5.45;;;;;;;;;;10115589;28;20056;-87
2023/05/09 09:42:45;;;;;;;6.90;6.05;;;;;;;;;;10117182;28;20054;-86
2023/05/09 09:47:55;;;;;;;8.55;6.70;;;;;;;;;;10180580;28;20055;-87
2023/05/09 09:53:00;;;;;;;5.22;4.70;;;;;;;;;;10187723;28;20048;-85
2023/05/09 09:58:15;;;;;;;4.55;3.83;;;;;;;;;;10189298;28;20083;-85
2023/05/09 10:03:48;;;;;;;5.70;5.03;;;;;;;;;;10187905;28;20059;-88
2023/05/09 10:08:53;;;;;;;7.18;5.85;;;;;;;;;;10184605;28;20063;-85
2023/05/09 10:13:57;;;;;;;6.70;5.13;;;;;;;;;;10182920;28;20083;-85
2023/05/09 10:19:00;;;;;;;7.15;5.43;;;;;;;;;;10185921;28;20056;-86
2023/05/09 10:24:06;;;;;;;7.25;5.57;;;;;;;;;;10149053;28;20056;-84
2023/05/09 10:29:10;;;;;;;;;;;;;;;;;;10187552;28;20059;-87
2023/05/09 10:34:15;;;;;;;4.88;4.05;;;;;;;;;;10194399;28;19970;-85
2023/05/09 10:39:20;;;;;;;5.03;3.75;;;;;;;;;;10129733;28;20049;-84
2023/05/09 10:44:25;;;;;;;5.07;3.95;;;;;;;;;;10128662;28;20103;-86
2023/05/09 10:49:28;;;;;;;3.97;3.40;;;;;;;;;;10102046;28;20077;-85
2023/05/09 10:54:40;;;;;;;3.97;3.25;;;;;;;;;;10134305;28;20049;-85
2023/05/09 10:59:45;;;;;;;3.92;3.03;;;;;;;;;;10185812;28;20053;-89
2023/05/09 11:04:49;;;;;;;3.92;3.00;;;;;;;;;;10590164;23;20052;-85
2023/05/09 11:10:08;;;;;;;7.00;4.45;;;;;;;;;;10214380;28;20053;-84
2023/05/09 11:15:14;;;;;;;6.38;4.50;;;;;;;;;;10107397;28;20409;-84
2023/05/09 11:20:18;;;;;;;5.90;4.53;;;;;;;;;;10185048;28;20067;-85
2023/05/09 11:25:27;;;;;;;3.10;2.80;;;;;;;;;;10173459;28;20057;-84
2023/05/09 11:30:39;;;;;;;3.33;2.97;;;;;;;;;;10173020;28;20482;-85
2023/05/09 11:35:44;;;;;;;2.97;2.67;;;;;;;;;;10167218;28;20053;-84
2023/05/09 11:40:51;;;;;;;2.55;2.35;;;;;;;;;;10099755;28;20056;-84
2023/05/09 11:45:56;;;;;;;6.43;4.07;;;;;;;;;;10172477;28;20049;-84
2023/05/09 11:51:01;;;;;;;3.28;2.83;;;;;;;;;;10177070;28;20052;-83
2023/05/09 11:56:06;;;;;;;2.97;2.67;;;;;;;;;;10114192;28;20055;-84
2023/05/09 12:01:11;;;;;;;;;;;;;;;;;;10116029;28;20048;-83
2023/05/09 12:06:16;;;;;;;3.25;2.55;;;;;;;;;;10154126;28;19931;-85
2023/05/09 12:11:22;;;;;;;3.20;2.88;;;;;;;;;;10176219;28;20060;-83
2023/05/09 12:16:25;;;;;;;3.28;2.90;;;;;;;;;;10110287;28;20421;-84
2023/05/09 12:21:29;;;;;;;2.20;2.00;;;;;;;;;;10177095;28;20156;-84
2023/05/09 12:26:34;;;;;;;3.60;2.38;;;;;;;;;;10177988;28;20053;-84
2023/05/09 12:31:38;;;;;;;4.40;1.95;;;;;;;;;;10176787;28;20785;-84
2023/05/09 12:36:49;;;;;;;2.28;2.08;;;;;;;;;;10176439;28;20064;-84
2023/05/09 12:41:54;;;;;;;4.00;2.70;;;;;;;;;;10164286;28;20056;-84
2023/05/09 12:47:04;;;;;;;2.65;2.42;;;;;;;;;;10176441;28;20406;-84
2023/05/09 12:52:19;;;;;;;3.35;2.10;;;;;;;;;;10173817;28;20080;-83
2023/05/09 12:57:26;;;;;;;2.30;2.10;;;;;;;;;;10176816;28;20184;-83
2023/05/09 13:02:35;;;;;;;3.58;2.20;;;;;;;;;;10175042;28;20077;-83
2023/05/09 13:07:40;;;;;;;2.13;1.92;;;;;;;;;;10158085;28;20044;-83
2023/05/09 13:12:47;;;;;;;2.20;2.00;;;;;;;;;;10151623;28;20532;-84
2023/05/09 13:17:52;;;;;;;4.35;2.13;;;;;;;;;;10174493;28;20052;-84
2023/05/09 13:22:56;;;;;;;1.90;1.75;;;;;;;;;;10174044;28;20288;-84
2023/05/09 13:28:05;;;;;;;2.03;1.70;;;;;;;;;;10174982;28;20405;-84
2023/05/09 13:33:12;;;;;;;3.13;2.83;;;;;;;;;;10175276;28;20052;-84
2023/05/09 13:38:29;;;;;;;2.58;2.38;;;;;;;;;;10167378;28;20053;-84
2023/05/09 13:43:35;;;;;;;3.55;3.25;;;;;;;;;;10171274;28;20502;-84
2023/05/09 13:48:46;;;;;;;5.30;4.63;;;;;;;;;;10174625;28;20056;-84
2023/05/09 13:53:50;;;;;;;5.38;3.90;;;;;;;;;;10138087;28;20071;-84
2023/05/09 13:58:55;;;;;;;4.45;3.35;;;;;;;;;;10173946;28;20059;-84
2023/05/09 14:03:58;;;;;;;3.77;3.13;;;;;;;;;;10160784;28;20064;-84
2023/05/09 14:09:03;;;;;;;4.43;3.10;;;;;;;;;;10182337;28;20440;-84
2023/05/09 14:14:09;;;;;;;4.13;3.33;;;;;;;;;;10174017;28;20691;-84
2023/05/09 14:19:14;;;;;;;3.13;2.83;;;;;;;;;;10147193;28;20474;-84
2023/05/09 14:24:17;;;;;;;4.28;3.88;;;;;;;;;;10073081;28;20053;-85
2023/05/09 14:29:21;;;;;;;4.03;3.50;;;;;;;;;;10147575;28;20062;-84
2023/05/09 14:34:25;;;;;;;3.65;3.28;;;;;;;;;;10171539;28;20507;-86
2023/05/09 14:39:29;;;;;;;5.18;3.83;;;;;;;;;;10158920;28;20410;-86
2023/05/09 14:44:33;;;;;;;4.28;3.53;;;;;;;;;;10168522;28;20045;-85
2023/05/09 14:49:38;;;;;;;5.03;3.80;;;;;;;;;;10163497;28;20049;-84
2023/05/09 14:54:42;;;;;;;3.72;2.85;;;;;;;;;;10115391;28;20139;-84
2023/05/09 14:59:46;;;;;;;3.50;2.92;;;;;;;;;;10113654;28;20059;-84
2023/05/09 15:04:50;;;;;;;3.20;2.75;;;;;;;;;;10164906;28;20059;-85
2023/05/09 15:09:53;;;;;;;4.13;3.42;;;;;;;;;;10165530;28;20053;-84
2023/05/09 15:15:11;;;;;;;5.60;3.53;;;;;;;;;;10171453;28;20056;-86
2023/05/09 15:20:16;;;;;;;4.45;3.50;;;;;;;;;;10178645;28;20089;-84
2023/05/09 15:25:20;;;;;;;3.03;2.72;;;;;;;;;;10143853;28;20061;-89
2023/05/09 15:30:26;;;;;;;4.43;3.83;;;;;;;;;;10187046;28;20880;-86
2023/05/09 15:35:30;;;;;;;5.28;3.30;;;;;;;;;;10187844;28;20056;-86
2023/05/09 15:40:33;;;;;;;4.40;2.88;;;;;;;;;;10174891;28;20053;-87
2023/05/09 15:45:43;;;;;;;5.68;3.97;;;;;;;;;;10185897;28;20056;-89
2023/05/09 15:50:47;;;;;;;3.05;2.63;;;;;;;;;;10184575;28;20041;-88
2023/05/09 15:55:50;;;;;;;3.55;3.00;;;;;;;;;;10114817;28;20406;-87
2023/05/09 16:00:55;;;;;;;3.75;3.10;;;;;;;;;;10145278;28;20077;-88
2023/05/09 16:05:59;;;;;;;3.13;2.83;;;;;;;;;;10118218;28;20056;-86
2023/05/09 16:11:03;;;;;;;3.15;2.58;;;;;;;;;;10185515;28;20088;-88
2023/05/09 16:16:08;;;;;;;2.58;2.38;;;;;;;;;;10119481;28;20486;-90
2023/05/09 16:21:12;;;;;;;3.92;2.47;;;;;;;;;;10174775;28;20049;-89
2023/05/09 16:26:15;;;;;;;3.63;3.25;;;;;;;;;;10166063;28;20055;-90
2023/05/09 16:31:25;;;;;;;2.78;2.50;;;;;;;;;;10183684;28;20136;-87
2023/05/09 16:36:29;;;;;;;3.15;2.85;;;;;;;;;;10178668;28;20430;-90
2023/05/09 16:41:32;;;;;;;2.10;1.90;;;;;;;;;;10185570;28;20091;-88
2023/05/09 16:46:37;;;;;;;2.05;1.85;;;;;;;;;;10182866;28;20045;-88
2023/05/09 16:51:40;;;;;;;2.25;1.98;;;;;;;;;;10116583;28;20055;-87
2023/05/09 16:56:44;;;;;;;2.40;2.20;;;;;;;;;;10120617;28;20044;-89
2023/05/09 17:07:21;;;;;;;2.63;2.22;;;;;;;;;;10326081;23;20091;-88
2023/05/09 17:12:26;;;;;;;2.03;1.83;;;;;;;;;;10144494;28;20052;-88
2023/05/09 17:17:29;;;;;;;2.15;1.95;;;;;;;;;;10172398;28;20128;-89
2023/05/09 17:22:34;;;;;;;2.13;1.90;;;;;;;;;;10174016;28;20060;-89
2023/05/09 17:27:41;;;;;;;2.67;2.08;;;;;;;;;;10244298;28;20043;-90
2023/05/09 17:32:45;;;;;;;2.63;1.88;;;;;;;;;;10188054;28;20043;-90
2023/05/09 17:37:50;;;;;;;2.67;1.83;;;;;;;;;;10182564;28;20470;-91
2023/05/09 17:42:54;;;;;;;1.93;1.77;;;;;;;;;;10186593;28;20056;-89
2023/05/09 17:48:00;;;;;;;2.03;1.80;;;;;;;;;;10185269;28;20457;-90
2023/05/09 17:53:07;;;;;;;3.17;2.67;;;;;;;;;;10188422;28;20056;-92
2023/05/09 17:58:13;;;;;;;2.28;1.27;;;;;;;;;;10120757;28;20649;-89
2023/05/09 18:03:17;;;;;;;1.85;0.85;;;;;;;;;;10103745;28;20053;-88
2023/05/09 18:08:26;;;;;;;0.80;0.80;;;;;;;;;;10182981;28;20510;-90
2023/05/09 18:13:30;;;;;;;1.00;0.90;;;;;;;;;;10118854;28;20076;-89
2023/05/09 18:18:36;;;;;;;0.70;0.70;;;;;;;;;;10187318;28;20068;-89
2023/05/09 18:23:46;;;;;;;0.75;0.75;;;;;;;;;;10110083;28;20103;-89
2023/05/09 18:28:51;;;;;;;1.48;0.85;;;;;;;;;;10176035;28;20442;-89
2023/05/09 18:33:55;;;;;;;;;;;;;;;;;;10185755;28;20052;-89
2023/05/09 18:39:04;;;;;;;2.08;0.63;;;;;;;;;;10160859;28;20018;-90
2023/05/09 18:44:12;;;;;;;1.83;1.15;;;;;;;;;;10099781;28;20522;-89
2023/05/09 18:49:17;;;;;;;1.35;1.25;;;;;;;;;;10111034;28;20053;-89
2023/05/09 18:54:26;;;;;;;2.97;1.38;;;;;;;;;;10141194;28;20082;-90
2023/05/09 18:59:32;;;;;;;0.90;0.82;;;;;;;;;;10185363;28;20054;-89
2023/05/09 19:04:40;;;;;;;0.70;0.70;;;;;;;;;;10115072;28;20506;-89
2023/05/09 19:09:50;;;;;;;2.05;0.90;;;;;;;;;;10180734;28;20049;-89
2023/05/09 19:14:56;;;;;;;1.10;0.73;;;;;;;;;;10181220;28;20103;-89
2023/05/09 19:20:06;;;;;;;1.73;0.85;;;;;;;;;;10182203;28;20048;-92
2023/05/09 19:25:14;;;;;;;1.25;0.80;;;;;;;;;;10181630;28;20477;-89
2023/05/09 19:30:19;;;;;;;0.60;0.60;;;;;;;;;;10180588;28;20140;-89
2023/05/09 19:35:25;;;;;;;0.90;0.70;;;;;;;;;;10186377;28;20573;-89
2023/05/09 19:40:33;;;;;;;;;;;;;;;;;;10192040;28;20047;-89
2023/05/09 19:45:38;;;;;;;0.98;0.80;;;;;;;;;;10180604;28;19924;-89
2023/05/09 19:50:44;;;;;;;1.25;0.80;;;;;;;;;;10184580;28;20049;-90
2023/05/09 19:55:51;;;;;;;2.75;1.02;;;;;;;;;;10191507;28;20052;-89
2023/05/09 20:00:55;;;;;;;1.10;0.90;;;;;;;;;;10223049;28;20095;-90
2023/05/09 20:05:59;;;;;;;1.00;0.90;;;;;;;;;;10161473;28;20052;-90
2023/05/09 20:11:03;;;;;;;1.48;0.90;;;;;;;;;;10119102;28;20136;-90
2023/05/09 20:16:08;;;;;;;;;;;;;;;;;;10182487;28;20053;-91
2023/05/09 20:21:12;;;;;;;0.60;0.60;;;;;;;;;;10160261;28;19959;-91
2023/05/09 20:26:20;;;;;;;1.48;0.70;;;;;;;;;;10190413;28;20063;-90
2023/05/09 20:31:24;;;;;;;1.58;0.60;;;;;;;;;;10266458;28;20078;-89
2023/05/09 20:36:28;;;;;;;1.02;0.73;;;;;;;;;;10188910;28;20460;-89
2023/05/09 20:41:33;;;;;;;1.63;0.80;;;;;;;;;;10193149;28;20165;-89
2023/05/09 20:46:39;;;;;;;0.80;0.80;;;;;;;;;;10180118;28;20057;-91
2023/05/09 20:51:43;;;;;;;0.40;0.40;;;;;;;;;;10185596;28;20088;-90
2023/05/09 20:56:48;;;;;;;1.15;0.85;;;;;;;;;;10226328;28;20135;-91
2023/05/09 21:01:54;;;;;;;1.30;0.82;;;;;;;;;;10175470;28;20058;-89
2023/05/09 21:06:58;;;;;;;0.47;0.25;;;;;;;;;;10184585;28;20103;-88
2023/05/09 21:12:03;;;;;;;0.35;0.30;;;;;;;;;;10130106;28;20060;-92
2023/05/09 21:17:07;;;;;;;0.20;0.20;;;;;;;;;;10161152;28;20099;-89
2023/05/09 21:22:11;;;;;;;1.00;0.20;;;;;;;;;;10182035;28;20053;-89
2023/05/09 21:27:16;;;;;;;0.20;0.20;;;;;;;;;;10185218;28;20049;-89
2023/05/09 21:32:28;;;;;;;0.22;0.20;;;;;;;;;;10161339;28;20038;-89
2023/05/09 21:37:33;;;;;;;0.20;0.20;;;;;;;;;;10241116;28;20139;-90
2023/05/09 21:42:40;;;;;;;0.80;0.30;;;;;;;;;;10266944;28;20035;-92
2023/05/09 21:47:43;;;;;;;;;;;;;;;;;;10252319;28;20598;-93
2023/05/09 21:52:47;;;;;;;0.65;0.25;;;;;;;;;;10185095;28;20032;-91
2023/05/09 21:57:52;;;;;;;0.10;0.10;;;;;;;;;;10185946;28;20060;-90
2023/05/09 22:02:56;;;;;;;0.10;0.10;;;;;;;;;;10120528;28;20461;-90
2023/05/09 22:08:00;;;;;;;0.45;0.30;;;;;;;;;;10120879;28;20060;-89
2023/05/09 22:13:05;;;;;;;0.10;0.10;;;;;;;;;;10185318;28;20056;-90
2023/05/09 22:18:10;;;;;;;0.10;0.10;;;;;;;;;;10155584;28;20758;-89
2023/05/09 22:23:13;;;;;;;0.25;0.10;;;;;;;;;;10171901;28;20636;-89
2023/05/09 22:28:18;;;;;;;1.08;0.20;;;;;;;;;;10189004;28;20063;-89
2023/05/09 22:33:22;;;;;;;0.57;0.20;;;;;;;;;;10166182;28;20056;-89
2023/05/09 22:38:31;;;;;;;0.17;0.17;;;;;;;;;;10126354;28;20053;-91
2023/05/09 22:43:36;;;;;;;0.20;0.20;;;;;;;;;;10192990;28;20072;-89
2023/05/09 22:48:41;;;;;;;0.20;0.20;;;;;;;;;;10192151;28;20048;-93
2023/05/09 22:53:45;;;;;;;0.20;0.20;;;;;;;;;;10191286;28;20140;-89
2023/05/09 22:58:50;;;;;;;0.10;0.10;;;;;;;;;;10190547;28;20564;-90
2023/05/09 23:03:54;;;;;;;0.10;0.10;;;;;;;;;;10176049;28;20060;-90
2023/05/09 23:08:57;;;;;;;0.20;0.13;;;;;;;;;;10114542;28;20132;-90
2023/05/09 23:14:03;;;;;;;0.20;0.10;;;;;;;;;;10191039;28;20159;-92
2023/05/09 23:19:06;;;;;;;0.10;0.10;;;;;;;;;;10190494;28;20067;-91
2023/05/09 23:24:10;;;;;;;0.10;0.10;;;;;;;;;;10190285;28;20053;-90
2023/05/09 23:29:15;;;;;;;0.63;0.10;;;;;;;;;;10124682;28;20462;-95
2023/05/09 23:34:19;;;;;;;0.10;0.10;;;;;;;;;;10175554;28;20053;-90
2023/05/09 23:39:22;;;;;;;0.10;0.10;;;;;;;;;;10141817;28;20068;-92
2023/05/09 23:44:34;;;;;;;0.93;0.20;;;;;;;;;;10124194;28;20057;-92
2023/05/09 23:49:37;;;;;;;0.20;0.20;;;;;;;;;;10163915;28;20466;-93
2023/05/09 23:54:43;;;;;;;0.10;0.10;;;;;;;;;;10185145;28;20067;-90
2023/05/09 23:59:49;;;;;;;0.10;0.10;;;;;;;;;;10188856;28;20057;-92
